createdAt,value
2022-09-27T00:01:03.653Z,98151.06
2022-09-27T00:03:31.625Z,98107.00
2022-09-27T00:06:05.293Z,98082.00
2022-09-27T00:08:33.502Z,98148.41
2022-09-27T00:11:02.106Z,98039.19
2022-09-27T00:13:31.386Z,98155.53
2022-09-27T00:15:59.432Z,98035.16
2022-09-27T00:18:27.381Z,98159.03
2022-09-27T00:20:55.091Z,98151.38
2022-09-27T00:23:22.853Z,98154.16
2022-09-27T00:25:57.452Z,98049.53
2022-09-27T00:28:27.617Z,98120.94
2022-09-27T00:31:10.788Z,98143.69
2022-09-27T00:33:39.559Z,98140.03
2022-09-27T00:36:11.742Z,98073.75
2022-09-27T00:38:46.214Z,98071.53
2022-09-27T00:41:21.600Z,98138.22
2022-09-27T00:43:52.849Z,98128.47
2022-09-27T00:46:25.263Z,98136.22
2022-09-27T00:49:06.242Z,98128.41
2022-09-27T00:51:40.521Z,98121.59
2022-09-27T00:54:15.659Z,98131.06
2022-09-27T00:56:49.458Z,98134.56
2022-09-27T00:59:27.710Z,98070.28
2022-09-27T01:01:58.943Z,98113.63
2022-09-27T01:04:38.259Z,98129.25
2022-09-27T01:07:06.489Z,98134.88
2022-09-27T01:09:35.025Z,98090.53
2022-09-27T01:12:07.104Z,98084.38
2022-09-27T01:14:42.725Z,98033.88
2022-09-27T01:17:21.243Z,98151.66
2022-09-27T01:20:13.280Z,98074.75
2022-09-27T01:22:45.981Z,98135.00
2022-09-27T01:25:36.763Z,98138.53
2022-09-27T01:28:17.771Z,98058.53
2022-09-27T01:30:49.284Z,98130.84
2022-09-27T01:33:34.976Z,98125.38
2022-09-27T01:36:27.847Z,98117.84
2022-09-27T01:39:12.311Z,98121.16
2022-09-27T01:41:50.369Z,98123.00
2022-09-27T01:44:23.497Z,98122.31
2022-09-27T01:47:03.355Z,98089.25
2022-09-27T01:49:37.226Z,98046.97
2022-09-27T01:52:09.326Z,98109.72
2022-09-27T01:54:39.344Z,98108.88
2022-09-27T01:57:07.744Z,98070.50
2022-09-27T01:59:37.978Z,98091.59
2022-09-27T02:02:12.489Z,98080.97
2022-09-27T02:04:41.457Z,98098.25
2022-09-27T02:07:16.757Z,98097.41
2022-09-27T02:09:48.843Z,97990.31
2022-09-27T02:12:22.667Z,98053.19
2022-09-27T02:14:54.323Z,98087.75
2022-09-27T02:17:30.169Z,98060.16
2022-09-27T02:20:04.528Z,98038.13
2022-09-27T02:22:35.116Z,98094.06
2022-09-27T02:25:07.341Z,98091.25
2022-09-27T02:27:37.194Z,98026.00
2022-09-27T02:30:15.926Z,98032.66
2022-09-27T02:32:48.558Z,98089.72
2022-09-27T02:35:21.754Z,98062.13
2022-09-27T02:37:58.607Z,98088.19
2022-09-27T02:40:41.861Z,98019.72
2022-09-27T02:43:10.278Z,98055.53
2022-09-27T02:45:44.186Z,98008.56
2022-09-27T02:48:21.148Z,98084.69
2022-09-27T02:51:07.781Z,97962.75
2022-09-27T02:53:41.097Z,98094.50
2022-09-27T02:56:11.920Z,97983.09
2022-09-27T02:58:47.316Z,97997.44
2022-09-27T03:01:18.960Z,98056.97
2022-09-27T03:03:54.105Z,98034.41
2022-09-27T03:06:28.105Z,98049.47
2022-09-27T03:08:57.108Z,98042.13
2022-09-27T03:11:25.362Z,98095.47
2022-09-27T03:14:07.912Z,98093.81
2022-09-27T03:16:41.933Z,98024.41
2022-09-27T03:19:11.734Z,98079.31
2022-09-27T03:21:40.222Z,98107.53
2022-09-27T03:24:08.486Z,98123.50
2022-09-27T03:26:36.566Z,98064.16
2022-09-27T03:29:04.910Z,98119.59
2022-09-27T03:31:35.979Z,98109.94
2022-09-27T03:34:07.343Z,98112.31
2022-09-27T03:36:39.908Z,98045.25
2022-09-27T03:39:09.623Z,98123.50
2022-09-27T03:41:40.048Z,98118.19
2022-09-27T03:44:08.576Z,98102.28
2022-09-27T03:46:37.918Z,98120.69
2022-09-27T03:49:06.112Z,98119.03
2022-09-27T03:51:37.952Z,98078.41
2022-09-27T03:54:14.235Z,98086.66
2022-09-27T03:56:42.411Z,98130.63
2022-09-27T03:59:33.880Z,98123.63
2022-09-27T04:02:02.174Z,98134.41
2022-09-27T04:04:30.697Z,98131.91
2022-09-27T04:07:09.469Z,98074.97
2022-09-27T04:09:44.742Z,98052.09
2022-09-27T04:12:13.114Z,98125.22
2022-09-27T04:14:41.575Z,98039.28
2022-09-27T04:17:09.837Z,98082.22
2022-09-27T04:19:42.991Z,98125.06
2022-09-27T04:22:12.362Z,98095.88
2022-09-27T04:24:47.323Z,98126.03
2022-09-27T04:27:18.775Z,98100.91
2022-09-27T04:29:55.446Z,98111.22
2022-09-27T04:32:44.948Z,97922.75
2022-09-27T04:35:35.785Z,98139.31
2022-09-27T04:38:19.969Z,97996.91
2022-09-27T04:40:49.322Z,98136.53
2022-09-27T04:43:17.069Z,98074.41
2022-09-27T04:45:44.942Z,98140.03
2022-09-27T04:48:12.754Z,98131.34
2022-09-27T04:50:41.251Z,98140.31
2022-09-27T04:53:09.116Z,98147.44
2022-09-27T04:55:36.792Z,98147.44
2022-09-27T04:58:06.094Z,98146.75
2022-09-27T05:00:33.786Z,98146.03
2022-09-27T05:03:01.579Z,98149.84
2022-09-27T05:05:29.418Z,98157.66
2022-09-27T05:07:57.118Z,98155.81
2022-09-27T05:10:24.763Z,98155.81
2022-09-27T05:12:52.446Z,98158.47
2022-09-27T05:15:21.450Z,98166.59
2022-09-27T05:17:49.161Z,98160.19
2022-09-27T05:20:16.964Z,98160.78
2022-09-27T05:22:44.679Z,98176.97
2022-09-27T05:25:12.384Z,98177.94
2022-09-27T05:27:40.119Z,98186.75
2022-09-27T05:30:08.530Z,98180.88
2022-09-27T05:32:37.800Z,98175.88
2022-09-27T05:35:06.244Z,98190.56
2022-09-27T05:37:34.224Z,98183.69
2022-09-27T05:40:12.213Z,98187.91
2022-09-27T05:42:50.464Z,98189.56
2022-09-27T05:45:18.128Z,98190.41
2022-09-27T05:47:54.651Z,98199.06
2022-09-27T05:50:22.315Z,98202.69
2022-09-27T05:52:50.234Z,98200.91
2022-09-27T05:55:17.900Z,98205.22
2022-09-27T05:57:57.406Z,98210.53
2022-09-27T06:00:25.989Z,98165.59
2022-09-27T06:02:58.899Z,98202.97
2022-09-27T06:05:27.564Z,98109.31
2022-09-27T06:07:59.511Z,98206.31
2022-09-27T06:10:27.270Z,98210.41
2022-09-27T06:12:55.954Z,98223.53
2022-09-27T06:15:23.711Z,98221.84
2022-09-27T06:17:51.394Z,98233.59
2022-09-27T06:20:20.716Z,98233.44
2022-09-27T06:22:48.440Z,98230.94
2022-09-27T06:25:16.814Z,98234.31
2022-09-27T06:27:44.537Z,98234.56
2022-09-27T06:30:15.817Z,98234.41
2022-09-27T06:32:45.867Z,98246.31
2022-09-27T06:35:13.562Z,98245.16
2022-09-27T06:37:42.916Z,98253.00
2022-09-27T06:40:11.145Z,98248.38
2022-09-27T06:42:40.359Z,98248.25
2022-09-27T06:45:08.804Z,98245.28
2022-09-27T06:47:36.862Z,98233.31
2022-09-27T06:50:05.952Z,98260.81
2022-09-27T06:52:33.662Z,98267.50
2022-09-27T06:55:02.666Z,98266.56
2022-09-27T06:57:56.397Z,98277.94
2022-09-27T07:00:27.592Z,98259.78
2022-09-27T07:02:58.520Z,98276.38
2022-09-27T07:05:26.708Z,98276.94
2022-09-27T07:07:57.628Z,98274.16
2022-09-27T07:10:27.405Z,98290.22
2022-09-27T07:12:55.138Z,98237.44
2022-09-27T07:15:23.290Z,98266.19
2022-09-27T07:17:57.243Z,98301.44
2022-09-27T07:20:25.001Z,98301.44
2022-09-27T07:22:52.728Z,98301.69
2022-09-27T07:25:20.400Z,98306.75
2022-09-27T07:27:49.720Z,98311.78
2022-09-27T07:30:17.522Z,98286.44
2022-09-27T07:32:45.264Z,98322.25
2022-09-27T07:35:15.086Z,98278.47
2022-09-27T07:37:42.836Z,98333.56
2022-09-27T07:40:10.936Z,98266.88
2022-09-27T07:42:39.255Z,98283.69
2022-09-27T07:45:09.844Z,98337.19
2022-09-27T07:47:38.737Z,98338.56
2022-09-27T07:50:06.615Z,98338.28
2022-09-27T07:52:40.229Z,98345.84
2022-09-27T07:55:08.788Z,98351.00
2022-09-27T07:57:36.488Z,98358.00
2022-09-27T08:00:04.689Z,98356.03
2022-09-27T08:02:33.931Z,98353.97
2022-09-27T08:05:01.672Z,98368.19
2022-09-27T08:07:29.959Z,98329.88
2022-09-27T08:09:57.606Z,98376.31
2022-09-27T08:12:25.354Z,98379.25
2022-09-27T08:14:53.148Z,98370.69
2022-09-27T08:17:20.846Z,98384.66
2022-09-27T08:19:49.933Z,98380.75
2022-09-27T08:22:17.638Z,98329.03
2022-09-27T08:24:45.387Z,98386.72
2022-09-27T08:27:13.425Z,98382.13
2022-09-27T08:29:42.075Z,98378.38
2022-09-27T08:32:09.827Z,98398.78
2022-09-27T08:34:37.527Z,98404.09
2022-09-27T08:37:06.525Z,98352.66
2022-09-27T08:39:34.211Z,98397.22
2022-09-27T08:42:05.265Z,98400.75
2022-09-27T08:47:00.607Z,98401.59
2022-09-27T08:49:29.868Z,98350.44
2022-09-27T08:51:57.528Z,98399.59
2022-09-27T08:54:29.984Z,98397.94
2022-09-27T08:57:00.027Z,98408.56
2022-09-27T08:59:29.340Z,98405.50
2022-09-27T09:01:57.051Z,98410.69
2022-09-27T09:04:27.424Z,98407.06
2022-09-27T09:06:59.917Z,98406.78
2022-09-27T09:09:32.585Z,98411.66
2022-09-27T09:12:19.738Z,98410.94
2022-09-27T09:14:57.653Z,98418.34
2022-09-27T09:17:30.348Z,98418.50
2022-09-27T09:20:16.798Z,98420.88
2022-09-27T09:22:54.131Z,98424.53
2022-09-27T09:25:25.656Z,98407.59
2022-09-27T09:28:02.273Z,98367.63
2022-09-27T09:30:33.435Z,98421.56
2022-09-27T09:33:10.111Z,98418.91
2022-09-27T09:35:39.931Z,98411.78
2022-09-27T09:38:10.559Z,98418.22
2022-09-27T09:40:41.491Z,98424.94
2022-09-27T09:43:11.780Z,98418.78
2022-09-27T09:45:41.691Z,98414.44
2022-09-27T09:48:12.291Z,98410.06
2022-09-27T09:50:42.338Z,98364.53
2022-09-27T09:53:12.909Z,98411.50
2022-09-27T09:55:42.565Z,98408.16
2022-09-27T09:58:20.132Z,98418.09
2022-09-27T10:00:47.972Z,98404.41
2022-09-27T10:03:15.782Z,98407.22
2022-09-27T10:05:44.361Z,98407.38
2022-09-27T10:08:14.145Z,98400.09
2022-09-27T10:10:43.216Z,98257.63
2022-09-27T10:13:11.060Z,98405.78
2022-09-27T10:15:38.716Z,98403.97
2022-09-27T10:18:06.519Z,98400.63
2022-09-27T10:20:35.146Z,98340.50
2022-09-27T10:23:06.205Z,98393.03
2022-09-27T10:25:48.372Z,98395.00
2022-09-27T10:28:37.209Z,98356.03
2022-09-27T10:31:06.167Z,98358.25
2022-09-27T10:33:33.870Z,98396.34
2022-09-27T10:36:02.057Z,98333.75
2022-09-27T10:38:31.658Z,98402.25
2022-09-27T10:41:17.957Z,98404.63
2022-09-27T10:43:45.839Z,98401.97
2022-09-27T10:46:26.662Z,98356.66
2022-09-27T10:49:09.318Z,98400.53
2022-09-27T10:51:37.010Z,98410.22
2022-09-27T10:54:04.828Z,98406.41
2022-09-27T10:56:34.810Z,98351.06
2022-09-27T10:59:02.961Z,98407.78
2022-09-27T11:01:40.288Z,98416.78
2022-09-27T11:04:08.155Z,98419.47
2022-09-27T11:06:38.248Z,98419.03
2022-09-27T11:09:23.278Z,98421.03
2022-09-27T11:11:52.531Z,98408.25
2022-09-27T11:14:21.944Z,98393.97
2022-09-27T11:17:05.908Z,98420.03
2022-09-27T11:19:44.606Z,98413.72
2022-09-27T11:22:20.599Z,98419.88
2022-09-27T11:24:55.750Z,98417.38
2022-09-27T11:27:29.525Z,98427.44
2022-09-27T11:30:04.519Z,98408.56
2022-09-27T11:32:39.099Z,98381.84
2022-09-27T11:35:15.508Z,98383.13
2022-09-27T11:37:46.285Z,98470.03
2022-09-27T11:40:23.577Z,98476.50
2022-09-27T11:43:11.774Z,98478.78
2022-09-27T11:49:02.947Z,98464.31
2022-09-27T11:51:34.420Z,98458.19
2022-09-27T11:54:08.046Z,98461.38
2022-09-27T11:56:41.312Z,98450.34
2022-09-27T11:59:31.742Z,98419.31
2022-09-27T12:02:02.604Z,98454.13
2022-09-27T12:04:52.974Z,98451.72
2022-09-27T12:07:22.465Z,98399.31
2022-09-27T12:09:51.926Z,98454.25
2022-09-27T12:12:21.496Z,98452.59
2022-09-27T12:14:51.632Z,98452.97
2022-09-27T12:17:19.844Z,98449.63
2022-09-27T12:19:50.432Z,98449.34
2022-09-27T12:22:34.614Z,98396.75
2022-09-27T12:25:03.560Z,98377.31
2022-09-27T12:27:36.277Z,98384.56
2022-09-27T12:30:06.452Z,98426.63
2022-09-27T12:32:35.143Z,98429.31
2022-09-27T12:35:04.764Z,98431.66
2022-09-27T12:37:33.950Z,98439.50
2022-09-27T12:40:02.903Z,98374.88
2022-09-27T12:42:32.956Z,98429.69
2022-09-27T12:45:00.647Z,98445.34
2022-09-27T12:47:39.545Z,98437.94
2022-09-27T12:50:11.149Z,98431.47
2022-09-27T12:52:41.256Z,98389.06
2022-09-27T12:55:22.265Z,98441.66
2022-09-27T12:57:52.919Z,98391.88
2022-09-27T13:00:21.954Z,98446.13
2022-09-27T13:03:32.492Z,98439.38
2022-09-27T13:06:25.818Z,98440.22
2022-09-27T13:09:04.457Z,98438.19
2022-09-27T13:11:40.721Z,98429.63
2022-09-27T13:14:11.515Z,98435.47
2022-09-27T13:16:43.647Z,98385.41
2022-09-27T13:19:39.384Z,98433.75
2022-09-27T13:22:08.720Z,98439.31
2022-09-27T13:24:48.149Z,98439.56
2022-09-27T13:27:38.364Z,98442.59
2022-09-27T13:30:48.596Z,98453.81
2022-09-27T13:33:40.097Z,98450.44
2022-09-27T13:36:28.369Z,98450.44
2022-09-27T13:39:15.798Z,98445.13
2022-09-27T13:41:59.031Z,98390.94
2022-09-27T13:44:27.542Z,98461.50
2022-09-27T13:46:58.260Z,98463.03
2022-09-27T13:49:29.218Z,98454.06
2022-09-27T13:51:58.209Z,98457.56
2022-09-27T13:54:41.971Z,98411.75
2022-09-27T13:57:43.846Z,98450.84
2022-09-27T14:00:12.869Z,98445.97
2022-09-27T14:02:43.183Z,98463.91
2022-09-27T14:05:11.071Z,98453.41
2022-09-27T14:07:42.417Z,98382.91
2022-09-27T14:10:14.250Z,98462.84
2022-09-27T14:12:41.939Z,98465.81
2022-09-27T14:15:10.535Z,98401.66
2022-09-27T14:17:45.771Z,98453.34
2022-09-27T14:20:33.030Z,98453.88
2022-09-27T14:23:00.883Z,98452.59
2022-09-27T14:25:29.902Z,98450.00
2022-09-27T14:27:58.562Z,98442.72
2022-09-27T14:30:27.762Z,98384.97
2022-09-27T14:32:58.445Z,98454.84
2022-09-27T14:35:40.514Z,98451.19
2022-09-27T14:38:33.138Z,98391.00
2022-09-27T14:41:02.522Z,98399.50
2022-09-27T14:43:30.726Z,98463.53
2022-09-27T14:45:59.254Z,98452.38
2022-09-27T14:48:29.103Z,98467.63
2022-09-27T14:51:04.770Z,98411.59
2022-09-27T14:53:34.127Z,98465.84
2022-09-27T14:56:03.571Z,98447.47
2022-09-27T14:58:46.743Z,98490.28
2022-09-27T15:01:16.533Z,98479.91
2022-09-27T15:03:44.798Z,98441.78
2022-09-27T15:06:12.617Z,98478.53
2022-09-27T15:08:40.312Z,98481.34
2022-09-27T15:11:10.783Z,98482.50
2022-09-27T15:13:38.567Z,98487.81
2022-09-27T15:16:09.203Z,98487.13
2022-09-27T15:18:43.795Z,98473.16
2022-09-27T15:21:12.407Z,98412.63
2022-09-27T15:23:41.448Z,98476.75
2022-09-27T15:26:12.857Z,98475.94
2022-09-27T15:28:43.732Z,98478.59
2022-09-27T15:31:11.460Z,98477.75
2022-09-27T15:33:39.206Z,98475.22
2022-09-27T15:36:08.014Z,98432.47
2022-09-27T15:38:35.887Z,98478.03
2022-09-27T15:41:15.065Z,98413.47
2022-09-27T15:43:45.533Z,98475.69
2022-09-27T15:46:35.106Z,98480.84
2022-09-27T15:49:27.936Z,98484.66
2022-09-27T15:51:56.056Z,98480.59
2022-09-27T15:54:24.903Z,98424.13
2022-09-27T15:56:56.007Z,98463.56
2022-09-27T15:59:25.405Z,98406.22
2022-09-27T16:01:56.047Z,98499.66
2022-09-27T16:04:23.856Z,98495.47
2022-09-27T16:06:51.761Z,98501.81
2022-09-27T16:09:19.786Z,98502.78
2022-09-27T16:11:47.897Z,98497.59
2022-09-27T16:14:18.553Z,98459.69
2022-09-27T16:16:47.282Z,98509.38
2022-09-27T16:19:15.018Z,98518.50
2022-09-27T16:21:43.792Z,98533.63
2022-09-27T16:24:11.640Z,98519.63
2022-09-27T16:26:39.540Z,98526.78
2022-09-27T16:29:10.476Z,98529.59
2022-09-27T16:31:39.931Z,98520.03
2022-09-27T16:34:07.720Z,98530.03
2022-09-27T16:36:36.021Z,98519.50
2022-09-27T16:39:05.790Z,98515.16
2022-09-27T16:41:34.077Z,98519.81
2022-09-27T16:44:07.099Z,98520.75
2022-09-27T16:46:35.610Z,98523.69
2022-09-27T16:49:04.660Z,98521.00
2022-09-27T16:51:49.663Z,98521.00
2022-09-27T16:54:17.934Z,98523.00
2022-09-27T16:56:46.028Z,98462.00
2022-09-27T16:59:14.088Z,98530.28
2022-09-27T17:01:41.830Z,98525.94
2022-09-27T17:04:10.993Z,98527.75
2022-09-27T17:06:38.774Z,98520.63
2022-09-27T17:09:06.519Z,98528.63
2022-09-27T17:11:34.204Z,98531.41
2022-09-27T17:14:01.883Z,98529.72
2022-09-27T17:16:29.622Z,98526.25
2022-09-27T17:18:57.408Z,98521.06
2022-09-27T17:21:26.410Z,98525.53
2022-09-27T17:23:54.320Z,98519.50
2022-09-27T17:26:22.569Z,98523.00
2022-09-27T17:28:50.428Z,98530.16
2022-09-27T17:31:18.986Z,98521.47
2022-09-27T17:33:47.405Z,98526.94
2022-09-27T17:36:17.311Z,98470.97
2022-09-27T17:38:46.596Z,98535.06
2022-09-27T17:41:15.108Z,98531.56
2022-09-27T17:43:48.876Z,98472.78
2022-09-27T17:46:17.300Z,98540.41
2022-09-27T17:49:02.496Z,98542.22
2022-09-27T17:51:31.272Z,98540.53
2022-09-27T17:54:00.396Z,98540.53
2022-09-27T17:56:28.056Z,98532.84
2022-09-27T17:58:56.650Z,98536.31
2022-09-27T18:01:25.242Z,98479.78
2022-09-27T18:03:54.263Z,98540.97
2022-09-27T18:06:21.986Z,98543.63
2022-09-27T18:08:49.715Z,98538.44
2022-09-27T18:11:19.582Z,98514.06
2022-09-27T18:13:47.277Z,98541.25
2022-09-27T18:16:16.662Z,98485.13
2022-09-27T18:18:45.092Z,98539.53
2022-09-27T18:21:14.223Z,98538.59
2022-09-27T18:23:42.159Z,98536.06
2022-09-27T18:26:10.300Z,98493.09
2022-09-27T18:28:39.977Z,98539.81
2022-09-27T18:31:09.222Z,98539.00
2022-09-27T18:33:37.380Z,98519.13
2022-09-27T18:36:06.021Z,98547.13
2022-09-27T18:38:33.948Z,98427.84
2022-09-27T18:41:06.516Z,98553.28
2022-09-27T18:43:38.588Z,98554.25
2022-09-27T18:46:33.845Z,98513.38
2022-09-27T18:48:56.587Z,98551.03
2022-09-27T18:51:26.442Z,98550.22
2022-09-27T18:53:55.247Z,98534.66
2022-09-27T18:56:22.937Z,98547.69
2022-09-27T18:58:51.163Z,98554.69
2022-09-27T19:01:20.711Z,98499.25
2022-09-27T19:03:48.974Z,98551.31
2022-09-27T19:06:17.671Z,98493.94
2022-09-27T19:08:45.443Z,98519.97
2022-09-27T19:11:14.019Z,98544.31
2022-09-27T19:13:50.283Z,98547.13
2022-09-27T19:16:21.690Z,98548.09
2022-09-27T19:18:49.559Z,98486.94
2022-09-27T19:21:18.890Z,98549.06
2022-09-27T19:23:46.652Z,98514.63
2022-09-27T19:26:15.278Z,98548.25
2022-09-27T19:28:43.813Z,98544.88
2022-09-27T19:31:13.401Z,98535.91
2022-09-27T19:33:42.486Z,98538.72
2022-09-27T19:36:11.349Z,98539.69
2022-09-27T19:38:39.295Z,98537.03
2022-09-27T19:41:07.953Z,98546.00
2022-09-27T19:43:35.640Z,98541.66
2022-09-27T19:46:06.550Z,98541.66
2022-09-27T19:48:34.366Z,98546.16
2022-09-27T19:51:03.468Z,98542.63
2022-09-27T19:53:32.367Z,98539.28
2022-09-27T19:56:00.298Z,98526.13
2022-09-27T19:58:28.412Z,98485.81
2022-09-27T20:01:00.668Z,98498.41
2022-09-27T20:03:28.683Z,98549.91
2022-09-27T20:05:56.524Z,98555.38
2022-09-27T20:08:25.588Z,98548.09
2022-09-27T20:10:57.176Z,98542.22
2022-09-27T20:13:24.975Z,98552.16
2022-09-27T20:15:54.671Z,98543.34
2022-09-27T20:18:22.506Z,98553.25
2022-09-27T20:20:50.203Z,98551.44
2022-09-27T20:23:20.041Z,98553.25
2022-09-27T20:25:49.332Z,98550.75
2022-09-27T20:28:17.016Z,98554.38
2022-09-27T20:30:44.693Z,98550.06
2022-09-27T20:33:29.790Z,98556.06
2022-09-27T20:35:58.491Z,98553.53
2022-09-27T20:38:26.215Z,98547.41
2022-09-27T20:40:55.890Z,98548.22
2022-09-27T20:43:26.434Z,98547.53
2022-09-27T20:45:54.136Z,98543.88
2022-09-27T20:48:21.826Z,98547.41
2022-09-27T20:50:49.487Z,98542.91
2022-09-27T20:53:17.168Z,98539.56
2022-09-27T20:55:44.838Z,98538.84
2022-09-27T20:58:13.842Z,98539.84
2022-09-27T21:00:41.569Z,98534.53
2022-09-27T21:03:09.297Z,98543.44
2022-09-27T21:05:36.968Z,98537.31
2022-09-27T21:08:04.673Z,98537.31
2022-09-27T21:10:32.411Z,98541.78
2022-09-27T21:13:00.123Z,98536.47
2022-09-27T21:15:29.191Z,98537.31
2022-09-27T21:17:57.741Z,98536.47
2022-09-27T21:20:25.699Z,98535.63
2022-09-27T21:22:53.395Z,98537.31
2022-09-27T21:25:21.070Z,98529.47
2022-09-27T21:27:53.405Z,98528.63
2022-09-27T21:30:21.346Z,98480.13
2022-09-27T21:32:53.785Z,98516.75
2022-09-27T21:35:21.604Z,98520.06
2022-09-27T21:37:49.310Z,98525.41
2022-09-27T21:40:17.387Z,98526.38
2022-09-27T21:42:45.157Z,98529.03
2022-09-27T21:45:12.842Z,98526.25
2022-09-27T21:47:40.546Z,98521.91
2022-09-27T21:50:10.292Z,98529.91
2022-09-27T21:52:37.990Z,98532.69
2022-09-27T21:55:07.162Z,98496.41
2022-09-27T21:57:35.279Z,98529.19
2022-09-27T22:00:03.280Z,98530.03
2022-09-27T22:02:31.077Z,98523.00
2022-09-27T22:04:59.618Z,98517.03
2022-09-27T22:07:28.666Z,98507.19
2022-09-27T22:09:56.849Z,98506.38
2022-09-27T22:12:24.604Z,98512.66
2022-09-27T22:14:52.275Z,98506.66
2022-09-27T22:17:19.999Z,98510.13
2022-09-27T22:19:47.840Z,98499.91
2022-09-27T22:22:15.545Z,98512.94
2022-09-27T22:24:44.571Z,98495.28
2022-09-27T22:27:12.272Z,98504.28
2022-09-27T22:29:39.935Z,98509.47
2022-09-27T22:32:07.636Z,98505.94
2022-09-27T22:34:35.312Z,98506.94
2022-09-27T22:37:03.123Z,98505.09
2022-09-27T22:39:30.830Z,98499.91
2022-09-27T22:41:59.941Z,98495.72
2022-09-27T22:44:27.592Z,98481.03
2022-09-27T22:46:55.657Z,98492.09
2022-09-27T22:49:24.203Z,98487.75
2022-09-27T22:51:51.894Z,98476.97
2022-09-27T22:54:20.048Z,98460.31
2022-09-27T22:56:47.778Z,98468.44
2022-09-27T22:59:17.810Z,98468.56
2022-09-27T23:01:45.712Z,98458.22
2022-09-27T23:04:14.104Z,98459.22
2022-09-27T23:06:42.783Z,98450.50
2022-09-27T23:09:10.847Z,98451.34
2022-09-27T23:11:38.576Z,98450.50
2022-09-27T23:14:06.406Z,98438.94
2022-09-27T23:16:35.920Z,98382.38
2022-09-27T23:19:03.849Z,98443.28
2022-09-27T23:21:32.056Z,98434.56
2022-09-27T23:24:01.534Z,98436.38
2022-09-27T23:26:29.480Z,98369.63
2022-09-27T23:28:57.786Z,98432.88
2022-09-27T23:31:25.665Z,98438.19
2022-09-27T23:33:54.685Z,98432.88
2022-09-27T23:36:24.018Z,98429.50
2022-09-27T23:38:51.714Z,98429.50
2022-09-27T23:41:19.601Z,98420.72
2022-09-27T23:43:48.429Z,98406.56
2022-09-27T23:46:16.128Z,98426.19
2022-09-27T23:48:44.588Z,98367.41
2022-09-27T23:51:13.679Z,98428.69
2022-09-27T23:53:41.480Z,98428.69
2022-09-27T23:56:09.996Z,98422.81
2022-09-27T23:58:38.260Z,98361.53
